Time;durP1;ratioP1;P1;durP2;ratioP2;P2;SDS_P1;SDS_P2;PMS_P1;PMS_P2;Temp;Humidity;BMP_temperature;BMP_pressure;BME280_temperature;BME280_humidity;BME280_pressure;Samples;Min_cycle;Max_cycle;Signal;HPM_P1;HPM_P2
2024/02/07 00:02:24;;;;;;;7.60;4.53;;;8.20;99.90;;;8.70;100.00;97535.44;4979504;28;20897;-77
2024/02/07 00:04:52;;;;;;;4.80;3.93;;;8.10;99.90;;;8.72;100.00;97536.84;4979582;28;20953;-77
2024/02/07 00:07:20;;;;;;;10.80;4.00;;;8.20;99.90;;;8.75;100.00;97527.84;4981794;28;20966;-77
2024/02/07 00:09:49;;;;;;;8.47;4.50;;;8.30;99.90;;;8.74;100.00;97534.06;4981600;28;20593;-77
2024/02/07 00:12:17;;;;;;;6.30;4.30;;;8.20;99.90;;;8.75;100.00;97530.44;4980293;28;20877;-77
2024/02/07 00:14:46;;;;;;;6.30;4.10;;;8.30;99.90;;;8.76;100.00;97526.84;4979789;28;20464;-77
2024/02/07 00:17:14;;;;;;;4.80;3.50;;;8.40;99.90;;;8.76;100.00;97524.25;4978758;28;20479;-77
2024/02/07 00:19:44;;;;;;;7.40;3.83;;;8.30;99.90;;;8.76;100.00;97526.84;4981231;28;20469;-77
2024/02/07 00:22:13;;;;;;;11.23;4.77;;;8.30;99.90;;;8.74;100.00;97528.84;4981456;28;20460;-77
2024/02/07 00:24:41;;;;;;;10.67;4.53;;;8.40;99.90;;;8.72;100.00;97520.41;4981159;28;20475;-77
2024/02/07 00:27:10;;;;;;;8.20;4.30;;;8.20;99.90;;;8.74;100.00;97515.81;4979180;28;20547;-77
2024/02/07 00:29:39;;;;;;;9.67;3.73;;;8.20;99.90;;;8.71;100.00;97509.16;4981548;28;20484;-77
2024/02/07 00:32:07;;;;;;;5.60;3.93;;;8.30;99.90;;;8.77;100.00;97507.63;4981807;28;20911;-76
2024/02/07 00:34:37;;;;;;;9.13;4.57;;;8.40;99.90;;;8.75;100.00;97493.97;4980447;28;20460;-77
2024/02/07 00:37:06;;;;;;;6.63;4.40;;;8.20;99.90;;;8.74;100.00;97503.59;4978685;28;20535;-77
2024/02/07 00:39:37;;;;;;;12.50;4.87;;;8.30;99.90;;;8.70;100.00;97498.94;4979712;28;20464;-76
2024/02/07 00:42:06;;;;;;;14.83;5.20;;;8.20;99.90;;;8.73;100.00;97485.53;4979713;28;20463;-77
2024/02/07 00:44:34;;;;;;;6.47;3.83;;;8.20;99.90;;;8.76;100.00;97480.75;4980626;28;20553;-77
2024/02/07 00:47:03;;;;;;;10.37;4.77;;;8.30;99.90;;;8.76;100.00;97470.31;4979971;28;20478;-77
2024/02/07 00:49:32;;;;;;;9.90;4.30;;;8.30;99.90;;;8.71;100.00;97474.50;4980287;28;21045;-77
2024/02/07 00:52:00;;;;;;;7.50;3.93;;;8.30;99.90;;;8.71;100.00;97461.47;4980411;28;21415;-77
2024/02/07 00:54:30;;;;;;;12.30;4.00;;;8.30;99.90;;;8.70;100.00;97468.47;4982448;28;20967;-77
2024/02/07 00:56:58;;;;;;;6.63;3.60;;;8.40;99.90;;;8.72;100.00;97476.09;4984526;28;20645;-77
2024/02/07 00:59:27;;;;;;;9.43;4.57;;;8.40;99.90;;;8.71;100.00;97477.09;4983906;28;20811;-77
2024/02/07 01:01:56;;;;;;;10.57;5.07;;;8.30;99.90;;;8.74;100.00;97461.09;4984746;28;20475;-77
2024/02/07 01:04:25;;;;;;;9.50;5.00;;;8.30;99.90;;;8.76;100.00;97465.09;4983615;28;21017;-77
2024/02/07 01:06:53;;;;;;;13.17;4.70;;;8.30;99.90;;;8.79;100.00;97448.28;4983609;28;21077;-77
2024/02/07 01:09:22;;;;;;;9.30;4.20;;;8.40;99.90;;;8.77;100.00;97442.47;4984176;28;20917;-77
2024/02/07 01:11:52;;;;;;;6.23;3.90;;;8.30;99.90;;;8.76;100.00;97456.47;4984999;28;20456;-77
2024/02/07 01:14:21;;;;;;;11.50;4.80;;;8.20;99.90;;;8.79;100.00;97466.53;4984232;28;21203;-77
2024/02/07 01:16:50;;;;;;;11.20;5.00;;;8.30;99.90;;;8.80;100.00;97455.09;4984714;28;20460;-77
2024/02/07 01:19:20;;;;;;;14.93;4.83;;;8.40;99.90;;;8.79;100.00;97445.66;4983500;28;20455;-76
2024/02/07 01:21:49;;;;;;;10.77;5.13;;;8.30;99.90;;;8.77;100.00;97447.66;4986949;28;20563;-77
2024/02/07 01:24:18;;;;;;;9.33;4.47;;;8.20;99.90;;;8.75;100.00;97455.66;4984538;28;20463;-77
2024/02/07 01:26:47;;;;;;;12.70;4.50;;;8.30;99.90;;;8.83;100.00;97454.72;4984914;28;20494;-76
2024/02/07 01:29:18;;;;;;;7.37;4.83;;;8.30;99.90;;;8.82;100.00;97458.31;4982823;28;20495;-77
2024/02/07 01:31:47;;;;;;;8.37;4.10;;;8.40;99.90;;;8.83;100.00;97439.91;4983370;28;20487;-77
2024/02/07 01:34:16;;;;;;;8.97;4.70;;;8.40;99.90;;;8.80;100.00;97455.91;4984459;28;20543;-77
2024/02/07 01:36:45;;;;;;;10.37;3.93;;;8.40;99.90;;;8.80;100.00;97439.47;4983732;28;20490;-77
2024/02/07 01:39:16;;;;;;;9.30;4.30;;;8.50;99.90;;;8.81;100.00;97438.47;4987471;28;21023;-77
2024/02/07 01:42:01;;;;;;;14.80;5.93;;;8.40;99.90;;;8.81;100.00;97426.25;4983797;28;20487;-77
2024/02/07 01:44:31;;;;;;;11.03;4.50;;;8.30;99.90;;;8.81;100.00;97433.25;4983434;28;20456;-77
2024/02/07 01:47:14;;;;;;;8.63;4.90;;;8.30;99.90;;;8.80;100.00;97439.47;4983404;28;20811;-77
2024/02/07 01:49:48;;;;;;;12.93;4.70;;;8.40;99.90;;;8.80;100.00;97434.25;4983192;28;20993;-77
2024/02/07 01:52:21;;;;;;;15.20;4.83;;;8.30;99.90;;;8.78;100.00;97425.84;4983476;28;20635;-77
2024/02/07 01:54:52;;;;;;;6.83;3.70;;;8.40;99.90;;;8.81;100.00;97422.84;4982935;28;20467;-77
2024/02/07 01:57:23;;;;;;;5.00;3.43;;;8.30;99.90;;;8.78;100.00;97428.44;4982826;28;20464;-77
2024/02/07 01:59:53;;;;;;;10.03;3.80;;;8.30;99.90;;;8.80;100.00;97418.63;4982754;28;21026;-77
2024/02/07 02:02:23;;;;;;;11.00;4.30;;;8.30;99.90;;;8.82;100.00;97419.22;4983149;28;20482;-77
2024/02/07 02:04:51;;;;;;;11.33;3.57;;;8.40;99.90;;;8.80;100.00;97416.81;4982850;28;20464;-77
2024/02/07 02:07:22;;;;;;;7.37;3.97;;;8.30;99.90;;;8.82;100.00;97411.41;4983004;28;20489;-77
2024/02/07 02:09:50;;;;;;;8.43;3.23;;;8.40;99.90;;;8.85;100.00;97411.03;4982236;28;20975;-77
2024/02/07 02:12:19;;;;;;;9.53;3.93;;;8.40;99.90;;;8.81;100.00;97396.78;4982725;28;20456;-77
2024/02/07 02:14:48;;;;;;;7.17;4.57;;;8.40;99.90;;;8.81;100.00;97396.78;4981468;28;20478;-77
2024/02/07 02:17:18;;;;;;;10.20;3.83;;;8.40;99.90;;;8.82;100.00;97390.53;4982823;28;21274;-77
2024/02/07 02:19:48;;;;;;;5.30;3.67;;;8.40;99.90;;;8.84;100.00;97394.59;4982999;28;20507;-77
2024/02/07 02:22:59;;;;;;;7.70;3.60;;;8.40;99.90;;;8.85;100.00;97390.19;4983327;28;20754;-77
2024/02/07 02:25:49;;;;;;;18.33;3.77;;;8.50;99.90;;;8.86;100.00;97391.78;4983475;28;20996;-77
2024/02/07 02:28:35;;;;;;;10.40;4.73;;;8.40;99.90;;;8.88;100.00;97384.56;4987103;28;20938;-77
2024/02/07 02:31:12;;;;;;;11.60;4.27;;;8.40;99.90;;;8.88;100.00;97379.38;4983124;28;20583;-77
2024/02/07 02:33:42;;;;;;;11.57;4.27;;;8.40;99.90;;;8.92;100.00;97378.00;4983089;28;20535;-77
2024/02/07 02:36:11;;;;;;;8.03;3.97;;;8.40;99.90;;;8.86;100.00;97376.13;4982796;28;20503;-77
2024/02/07 02:38:39;;;;;;;6.33;3.33;;;8.40;99.90;;;8.85;100.00;97383.13;4981608;28;20467;-77
2024/02/07 02:41:08;;;;;;;12.60;4.33;;;8.30;99.90;;;8.89;100.00;97379.16;4982774;28;20932;-77
2024/02/07 02:43:39;;;;;;;10.40;4.43;;;8.30;99.90;;;8.91;100.00;97374.56;4982593;28;20468;-77
2024/02/07 02:46:10;;;;;;;12.40;4.23;;;8.40;99.90;;;8.91;100.00;97368.56;4982041;28;20463;-77
2024/02/07 02:48:39;;;;;;;5.90;3.83;;;8.50;99.90;;;8.91;100.00;97360.72;4983530;28;20810;-77
2024/02/07 02:51:08;;;;;;;6.93;3.70;;;8.30;99.90;;;8.95;100.00;97359.34;4982475;28;20500;-76
2024/02/07 02:53:37;;;;;;;13.70;4.57;;;8.50;99.90;;;8.94;100.00;97349.91;4981681;28;20495;-77
2024/02/07 02:56:07;;;;;;;17.20;4.10;;;8.40;99.90;;;8.93;100.00;97356.13;4985320;28;20467;-77
2024/02/07 02:58:35;;;;;;;10.03;5.33;;;8.50;99.90;;;8.94;100.00;97348.09;4982321;28;21065;-77
2024/02/07 03:01:13;;;;;;;12.20;4.27;;;8.40;99.90;;;8.95;100.00;97339.31;4981309;28;21163;-77
2024/02/07 03:03:53;;;;;;;10.80;4.17;;;8.40;99.90;;;8.98;100.00;97325.06;4982012;28;20836;-77
2024/02/07 03:06:29;;;;;;;14.37;5.17;;;8.50;99.90;;;9.01;100.00;97314.22;4980901;28;20460;-77
2024/02/07 03:09:07;;;;;;;7.77;3.70;;;8.50;99.90;;;9.01;100.00;97309.03;4984312;28;20499;-77
2024/02/07 03:11:37;;;;;;;5.97;3.63;;;8.50;99.90;;;9.00;100.00;97289.16;4981449;28;20883;-77
2024/02/07 03:14:06;;;;;;;10.33;4.00;;;8.50;99.90;;;9.00;100.00;97278.72;4979477;28;20466;-77
2024/02/07 03:16:36;;;;;;;11.80;4.20;;;8.50;99.90;;;9.00;100.00;97278.72;4980854;28;20528;-77
2024/02/07 03:19:05;;;;;;;8.87;4.43;;;8.60;99.90;;;9.03;100.00;97270.50;4981546;28;20946;-77
2024/02/07 03:21:34;;;;;;;7.07;4.10;;;8.60;99.90;;;9.02;100.00;97281.94;4981929;28;20487;-77
2024/02/07 03:24:02;;;;;;;11.00;4.17;;;8.60;99.90;;;9.03;100.00;97267.91;4980593;28;20456;-77
2024/02/07 03:26:31;;;;;;;7.77;4.93;;;8.50;99.90;;;9.05;100.00;97268.53;4981957;28;20472;-77
2024/02/07 03:28:59;;;;;;;5.47;3.23;;;8.50;99.90;;;9.07;100.00;97263.91;4981938;28;20467;-76
2024/02/07 03:31:28;;;;;;;7.83;4.47;;;8.60;99.90;;;9.08;100.00;97266.31;4982029;28;20867;-77
2024/02/07 03:33:58;;;;;;;9.30;4.53;;;8.60;99.90;;;9.09;100.00;97265.31;4981074;28;20543;-77
2024/02/07 03:36:28;;;;;;;10.90;4.93;;;8.70;99.90;;;9.08;100.00;97258.50;4983227;28;20493;-77
2024/02/07 03:38:58;;;;;;;13.23;4.77;;;8.60;99.90;;;9.11;100.00;97265.13;4983549;28;20496;-77
2024/02/07 03:41:27;;;;;;;12.30;4.40;;;8.70;99.90;;;9.14;100.00;97250.88;4980667;28;20466;-77
2024/02/07 03:43:58;;;;;;;10.30;4.30;;;8.70;99.90;;;9.11;100.00;97239.03;4980346;28;20462;-77
2024/02/07 03:46:27;;;;;;;10.80;4.60;;;8.70;99.90;;;9.11;100.00;97246.88;4980324;28;20456;-77
2024/02/07 03:48:57;;;;;;;10.20;3.93;;;8.70;99.90;;;9.10;100.00;97242.63;4981740;28;20488;-77
2024/02/07 03:51:28;;;;;;;11.53;4.97;;;8.60;99.90;;;9.16;100.00;97249.69;4980972;28;20502;-77
2024/02/07 03:53:59;;;;;;;10.20;5.00;;;8.70;99.90;;;9.16;100.00;97235.84;4980570;28;20473;-77
2024/02/07 03:56:28;;;;;;;6.83;4.43;;;8.70;99.90;;;9.12;100.00;97225.00;4981091;28;20460;-77
2024/02/07 03:58:57;;;;;;;11.43;5.10;;;8.70;99.90;;;9.10;100.00;97235.63;4980073;28;20959;-77
2024/02/07 04:01:27;;;;;;;13.03;4.60;;;8.60;99.90;;;9.15;100.00;97224.59;4978909;28;20568;-77
2024/02/07 04:03:57;;;;;;;7.03;4.40;;;8.70;99.90;;;9.15;100.00;97229.81;4980415;28;21006;-77
2024/02/07 04:06:28;;;;;;;14.00;5.50;;;8.60;99.90;;;9.17;100.00;97232.22;4978920;28;20685;-77
2024/02/07 04:08:56;;;;;;;10.77;5.03;;;8.80;99.90;;;9.16;100.00;97226.22;4980642;28;20480;-77
2024/02/07 05:17:19;;;;;;;4.60;3.23;;;8.90;99.90;;;9.29;100.00;97142.75;4976807;28;20463;-76
2024/02/07 05:19:47;;;;;;;8.50;3.73;;;9.00;99.90;;;9.31;100.00;97139.94;4978614;28;20533;-80
2024/02/07 05:22:17;;;;;;;15.93;4.63;;;9.00;99.90;;;9.29;100.00;97123.69;4972670;28;20478;-76
2024/02/07 05:24:49;;;;;;;9.13;3.30;;;8.90;99.90;;;9.31;100.00;97129.50;4976171;28;20475;-76
2024/02/07 05:27:18;;;;;;;6.50;2.87;;;8.90;99.90;;;9.30;100.00;97130.53;4977171;28;20479;-76
2024/02/07 05:29:46;;;;;;;6.70;3.50;;;8.80;99.90;;;9.34;100.00;97121.25;4975776;28;20480;-76
2024/02/07 05:32:14;;;;;;;7.50;3.50;;;8.90;99.90;;;9.31;100.00;97122.47;4977900;28;20506;-76
2024/02/07 05:34:43;;;;;;;8.90;4.70;;;9.00;99.90;;;9.26;100.00;97122.28;4975199;28;20555;-80
2024/02/07 05:37:12;;;;;;;8.30;4.37;;;8.90;99.90;;;9.31;100.00;97121.66;4977944;28;20456;-76
2024/02/07 05:39:41;;;;;;;10.20;3.40;;;8.90;99.90;;;9.31;100.00;97119.88;4977581;28;20463;-76
2024/02/07 05:42:11;;;;;;;8.82;4.30;;;8.90;99.90;;;9.35;100.00;97117.66;4980496;28;20463;-76
2024/02/07 05:44:39;;;;;;;6.30;3.13;;;8.90;99.90;;;9.36;100.00;97122.69;4987557;28;20905;-76
2024/02/07 05:47:07;;;;;;;9.60;3.53;;;9.00;99.90;;;9.38;100.00;97109.44;4987824;28;20518;-76
2024/02/07 05:49:36;;;;;;;4.70;2.97;;;9.00;99.90;;;9.37;100.00;97119.06;4986449;28;20470;-76
2024/02/07 05:52:05;;;;;;;7.73;3.20;;;9.00;99.90;;;9.41;100.00;97114.22;4987891;28;20531;-76
2024/02/07 05:54:34;;;;;;;5.43;3.40;;;9.00;99.90;;;9.40;100.00;97103.03;4986451;28;20471;-76
2024/02/07 05:57:02;;;;;;;3.93;2.80;;;9.00;99.90;;;9.39;100.00;97098.81;4987172;28;20496;-76
2024/02/07 05:59:32;;;;;;;19.43;4.10;;;9.00;99.90;;;9.36;100.00;97114.88;4987082;28;20456;-76
2024/02/07 06:02:02;;;;;;;4.77;2.97;;;9.00;99.90;;;9.36;100.00;97112.25;4987877;28;20502;-76
2024/02/07 06:04:31;;;;;;;7.90;2.87;;;8.90;99.90;;;9.37;100.00;97098.19;4986954;28;20468;-76
2024/02/07 06:07:00;;;;;;;5.40;3.23;;;8.90;99.90;;;9.37;100.00;97105.22;4986109;28;20470;-76
2024/02/07 06:09:28;;;;;;;6.07;3.13;;;9.00;99.90;;;9.37;100.00;97103.41;4986653;28;20476;-76
2024/02/07 06:11:57;;;;;;;3.67;2.43;;;9.00;99.90;;;9.40;100.00;97103.03;4984634;28;20499;-76
2024/02/07 06:14:25;;;;;;;4.10;2.40;;;9.00;99.90;;;9.40;100.00;97107.44;4985027;28;20476;-76
2024/02/07 06:16:55;;;;;;;5.67;2.60;;;8.90;99.90;;;9.38;100.00;97094.56;4986257;28;20468;-76
2024/02/07 06:19:24;;;;;;;5.67;2.60;;;8.90;99.90;;;9.38;100.00;97094.56;4985570;28;20854;-75
2024/02/07 06:21:52;;;;;;;10.87;2.93;;;8.90;99.90;;;9.36;100.00;97101.00;4986553;28;20866;-75
2024/02/07 06:24:21;;;;;;;6.87;2.53;;;8.80;99.90;;;9.36;100.00;97083.56;4985320;28;20494;-76
2024/02/07 06:26:50;;;;;;;4.20;2.40;;;8.90;99.90;;;9.38;100.00;97094.56;4984615;28;20975;-76
2024/02/07 06:29:18;;;;;;;3.90;2.40;;;8.90;99.90;;;9.38;100.00;97094.56;4985771;28;20463;-76
2024/02/07 06:31:47;;;;;;;3.17;2.60;;;8.90;99.90;;;9.38;100.00;97094.56;4985301;28;20786;-76
2024/02/07 06:34:16;;;;;;;3.30;2.40;;;8.90;99.90;;;9.36;100.00;97096.59;4985871;28;20537;-76
2024/02/07 06:36:45;;;;;;;5.03;3.00;;;8.90;99.90;;;9.35;100.00;97089.78;4987027;28;20495;-76
2024/02/07 06:39:14;;;;;;;2.90;2.60;;;8.90;99.90;;;9.38;100.00;97089.34;4985314;28;20468;-75
2024/02/07 06:41:42;;;;;;;4.50;2.50;;;8.90;99.90;;;9.37;100.00;97077.31;4986069;28;20473;-76
2024/02/07 06:44:10;;;;;;;3.90;2.50;;;8.90;99.90;;;9.38;100.00;97088.56;4987678;28;20500;-76
2024/02/07 06:46:43;;;;;;;3.47;2.37;;;8.90;99.90;;;9.36;100.00;97070.50;4987185;28;20468;-75
2024/02/07 06:49:11;;;;;;;4.00;2.50;;;8.80;99.90;;;9.39;100.00;97077.13;4986282;28;20460;-76
2024/02/07 06:51:42;;;;;;;3.40;2.40;;;9.00;99.90;;;9.40;100.00;97071.72;4984628;28;21046;-75
2024/02/07 06:54:11;;;;;;;4.60;2.40;;;9.00;99.90;;;9.42;100.00;97063.66;4986237;28;21033;-76
2024/02/07 06:56:40;;;;;;;5.00;2.80;;;9.00;99.90;;;9.41;100.00;97057.63;4985716;28;20565;-76
2024/02/07 06:59:11;;;;;;;7.87;2.70;;;9.00;99.90;;;9.39;100.00;97072.72;4984605;28;20584;-76
2024/02/07 07:01:41;;;;;;;3.50;2.63;;;8.90;99.90;;;9.41;100.00;97062.06;4985329;28;20476;-76
2024/02/07 07:04:10;;;;;;;3.30;2.23;;;8.90;99.90;;;9.39;100.00;97069.28;4987174;28;20472;-76
2024/02/07 07:06:38;;;;;;;4.17;2.53;;;8.90;99.90;;;9.40;100.00;97061.28;4985569;28;20542;-76
2024/02/07 07:09:08;;;;;;;3.80;2.67;;;8.90;99.90;;;9.39;100.00;97059.66;4986413;28;20977;-76
2024/02/07 07:11:37;;;;;;;4.67;2.80;;;8.90;99.90;;;9.38;100.00;97060.66;4986179;28;20464;-75
2024/02/07 07:14:05;;;;;;;5.60;2.50;;;8.90;99.90;;;9.39;100.00;97054.44;4985377;28;20503;-76
2024/02/07 07:16:34;;;;;;;4.17;2.17;;;8.90;99.90;;;9.40;100.00;97056.06;4984618;28;20468;-76
2024/02/07 07:19:02;;;;;;;2.30;1.90;;;9.00;99.90;;;9.39;100.00;97059.66;4987156;28;20464;-76
2024/02/07 07:21:31;;;;;;;5.33;2.50;;;9.00;99.90;;;9.37;100.00;97058.28;4985354;28;20471;-77
2024/02/07 07:24:00;;;;;;;7.03;3.37;;;8.90;99.90;;;9.38;100.00;97047.63;4984830;28;20483;-76
2024/02/07 07:26:29;;;;;;;4.97;2.67;;;9.00;99.90;;;9.39;100.00;97064.88;4985742;28;20476;-76
2024/02/07 07:28:58;;;;;;;4.10;2.50;;;8.90;99.90;;;9.38;100.00;97078.94;4985849;28;20963;-76
2024/02/07 07:31:29;;;;;;;7.83;2.77;;;8.90;99.90;;;9.37;100.00;97066.88;4985501;28;20479;-75
2024/02/07 07:33:58;;;;;;;3.80;2.33;;;8.80;99.90;;;9.40;100.00;97057.88;4985684;28;20614;-75
2024/02/07 07:36:27;;;;;;;3.47;2.30;;;8.90;99.90;;;9.41;100.00;97062.06;4986334;28;20468;-75
2024/02/07 07:38:56;;;;;;;3.30;1.97;;;8.80;99.90;;;9.43;100.00;97060.88;4985741;28;20460;-75
2024/02/07 07:41:25;;;;;;;5.40;2.23;;;9.00;99.90;;;9.42;100.00;97064.47;4985283;28;20472;-76
2024/02/07 07:43:57;;;;;;;3.30;2.23;;;8.90;99.90;;;9.42;100.00;97058.44;4986039;28;20456;-75
2024/02/07 07:46:26;;;;;;;3.50;2.00;;;8.90;99.90;;;9.42;100.00;97054.03;4986720;28;20487;-75
2024/02/07 07:48:54;;;;;;;3.43;2.07;;;8.90;99.90;;;9.43;100.00;97060.88;4985527;28;20494;-75
2024/02/07 07:51:23;;;;;;;2.40;1.80;;;9.00;99.90;;;9.42;100.00;97056.66;4986245;28;20900;-75
2024/02/07 07:53:51;;;;;;;2.80;1.83;;;8.90;99.90;;;9.42;100.00;97059.25;4984138;28;20862;-75
2024/02/07 07:56:20;;;;;;;3.33;2.13;;;8.90;99.90;;;9.45;100.00;97051.00;4986668;28;20488;-75
2024/02/07 07:58:49;;;;;;;12.53;2.20;;;9.10;99.90;;;9.46;100.00;97054.44;4986834;28;20966;-76
2024/02/07 08:01:22;;;;;;;2.70;1.97;;;9.10;99.90;;;9.44;100.00;97059.84;4987256;28;20479;-76
2024/02/07 08:03:52;;;;;;;1.97;1.67;;;8.90;99.90;;;9.45;100.00;97050.22;4984837;28;20491;-76
2024/02/07 08:06:21;;;;;;;4.13;2.27;;;8.90;99.90;;;9.47;100.00;97058.66;4986650;28;20467;-76
2024/02/07 08:08:50;;;;;;;2.13;1.70;;;9.00;99.90;;;9.46;100.00;97047.41;4985938;28;20510;-76
2024/02/07 08:11:19;;;;;;;2.60;1.63;;;9.00;99.90;;;9.48;100.00;97048.00;4984888;28;20476;-76
2024/02/07 08:13:47;;;;;;;2.17;1.97;;;9.00;99.90;;;9.46;100.00;97050.00;4985472;28;20574;-75
2024/02/07 08:16:16;;;;;;;2.90;1.70;;;9.00;99.90;;;9.49;100.00;97039.16;4983400;28;20494;-76
2024/02/07 08:18:46;;;;;;;2.97;1.77;;;9.00;99.90;;;9.49;100.00;97046.19;4986048;28;20834;-76
2024/02/07 08:21:17;;;;;;;2.53;1.70;;;9.00;99.90;;;9.50;100.00;97046.00;4984891;28;20472;-75
2024/02/07 08:23:46;;;;;;;2.83;1.60;;;9.10;99.90;;;9.49;100.00;97060.03;4984083;28;20467;-75
2024/02/07 08:26:14;;;;;;;2.13;1.90;;;9.00;99.90;;;9.50;100.00;97050.41;4984751;28;20555;-75
2024/02/07 08:28:43;;;;;;;4.57;2.20;;;9.10;99.90;;;9.53;100.00;97056.03;4985530;28;20461;-75
2024/02/07 08:31:14;;;;;;;6.00;1.70;;;9.20;99.90;;;9.53;100.00;97058.63;4986533;28;20970;-76
2024/02/07 08:33:43;;;;;;;2.90;1.70;;;9.00;99.90;;;9.52;100.00;97057.03;4984257;28;20998;-76
2024/02/07 08:36:14;;;;;;;2.43;1.70;;;9.10;99.90;;;9.52;100.00;97054.41;4985586;28;20464;-75
2024/02/07 08:38:43;;;;;;;2.10;1.40;;;9.10;99.90;;;9.57;100.00;97057.22;4985756;28;20459;-75
2024/02/07 08:41:12;;;;;;;1.83;1.40;;;9.10;99.90;;;9.58;100.00;97044.94;4986384;28;20476;-76
2024/02/07 08:43:41;;;;;;;4.80;1.93;;;9.10;99.90;;;9.60;100.00;97054.19;4985579;28;20478;-76
2024/02/07 08:46:09;;;;;;;3.27;2.43;;;9.10;99.90;;;9.63;100.00;97060.00;4985008;28;20468;-75
2024/02/07 08:48:38;;;;;;;6.70;2.17;;;9.30;99.90;;;9.59;100.00;97062.22;4985645;28;20463;-76
2024/02/07 08:51:06;;;;;;;1.67;1.33;;;9.20;99.90;;;9.60;100.00;97061.22;4986158;28;20502;-76
2024/02/07 08:53:36;;;;;;;1.90;1.70;;;9.10;99.90;;;9.61;100.00;97061.00;4984424;28;20499;-76
2024/02/07 08:56:05;;;;;;;1.63;1.53;;;9.20;99.90;;;9.60;100.00;97062.03;4985420;28;20495;-76
2024/02/07 08:58:34;;;;;;;2.30;1.70;;;9.20;99.90;;;9.59;100.00;97049.16;4985763;28;20947;-75
2024/02/07 09:01:04;;;;;;;2.00;1.50;;;9.10;99.90;;;9.60;100.00;97051.59;4984788;28;20482;-76
2024/02/07 09:03:32;;;;;;;2.63;1.60;;;9.20;99.90;;;9.61;100.00;97047.19;4984906;28;20472;-75
2024/02/07 09:06:01;;;;;;;2.00;1.40;;;9.20;99.90;;;9.62;100.00;97043.53;4984595;28;20467;-76
2024/02/07 09:08:30;;;;;;;1.67;1.57;;;9.20;99.90;;;9.64;100.00;97028.50;4984907;28;20467;-76
2024/02/07 09:11:04;;;;;;;2.00;1.53;;;9.30;99.90;;;9.64;100.00;97031.09;4986081;28;20836;-75
2024/02/07 09:13:33;;;;;;;1.87;1.43;;;9.20;99.90;;;9.60;100.00;97035.13;4984267;28;20459;-76
2024/02/07 09:16:01;;;;;;;1.23;1.10;;;9.10;99.90;;;9.63;100.00;97033.91;4987005;28;20554;-76
2024/02/07 09:18:30;;;;;;;2.90;1.60;;;9.10;99.90;;;9.66;100.00;97029.06;4989316;28;20468;-76
2024/02/07 09:20:58;;;;;;;1.97;1.50;;;9.20;99.90;;;9.64;100.00;97032.91;4988762;28;20467;-76
2024/02/07 09:23:27;;;;;;;1.40;1.23;;;9.10;99.90;;;9.62;100.00;97022.66;4990148;28;20468;-76
2024/02/07 09:25:55;;;;;;;2.00;1.70;;;9.20;99.90;;;9.65;100.00;97026.69;4989453;28;20476;-76
2024/02/07 09:28:26;;;;;;;4.93;1.70;;;9.20;99.90;;;9.65;100.00;97024.06;4988133;28;20974;-76
2024/02/07 09:30:56;;;;;;;1.50;1.40;;;9.20;99.90;;;9.70;100.00;97037.28;4988037;28;20519;-75
2024/02/07 09:33:25;;;;;;;1.90;1.47;;;9.20;99.90;;;9.66;100.00;97041.31;4989535;28;20470;-76
2024/02/07 09:35:55;;;;;;;1.30;1.20;;;9.10;99.90;;;9.69;100.00;97040.91;4989129;28;20468;-76
2024/02/07 09:38:26;;;;;;;1.23;1.13;;;9.10;99.90;;;9.69;100.00;97035.69;4988895;28;20953;-76
2024/02/07 09:40:58;;;;;;;1.50;1.40;;;9.30;99.90;;;9.69;100.00;97027.84;4988561;28;20464;-75
2024/02/07 09:43:30;;;;;;;3.73;1.30;;;9.30;99.90;;;9.67;100.00;97024.66;4989048;28;20538;-76
2024/02/07 09:46:00;;;;;;;3.90;1.60;;;9.20;99.90;;;9.68;100.00;97028.88;4989283;28;20495;-75
2024/02/07 09:48:29;;;;;;;2.50;1.20;;;9.20;99.90;;;9.69;100.00;97030.47;4988896;28;21058;-76
2024/02/07 09:51:02;;;;;;;2.10;1.53;;;9.30;99.90;;;9.65;100.00;97017.03;4987801;28;20826;-76
2024/02/07 09:53:34;;;;;;;2.00;1.37;;;9.20;99.90;;;9.70;100.00;97025.06;4987989;28;20467;-76
2024/02/07 09:56:05;;;;;;;2.27;1.37;;;9.20;99.90;;;9.69;100.00;97014.81;4987722;28;21205;-75
2024/02/07 09:58:35;;;;;;;1.37;1.13;;;9.20;99.90;;;9.73;100.00;97008.16;4987783;28;20460;-76
2024/02/07 10:01:06;;;;;;;2.70;1.53;;;9.20;99.90;;;9.76;100.00;97015.56;4988914;28;20567;-76
2024/02/07 10:03:41;;;;;;;1.67;1.43;;;9.30;99.90;;;9.73;100.00;97013.38;4987860;28;20491;-75
2024/02/07 10:06:11;;;;;;;1.67;1.43;;;9.20;99.90;;;9.75;100.00;97021.81;4989115;28;20463;-76
2024/02/07 10:08:41;;;;;;;2.57;1.20;;;9.30;99.90;;;9.74;100.00;97005.34;4989177;28;20472;-75
2024/02/07 10:11:10;;;;;;;6.40;1.40;;;9.30;99.90;;;9.72;100.00;97012.56;4987554;28;20472;-76
2024/02/07 10:13:40;;;;;;;2.87;1.40;;;9.30;99.90;;;9.72;100.00;97009.19;4988290;28;20515;-76
2024/02/07 10:16:11;;;;;;;1.67;1.33;;;9.30;99.90;;;9.75;100.00;97011.38;4987166;28;20591;-76
2024/02/07 10:18:41;;;;;;;1.50;1.07;;;9.40;99.90;;;9.75;100.00;97008.78;4988666;28;20471;-76
2024/02/07 10:21:38;;;;;;;2.77;1.47;;;9.40;99.90;;;9.75;100.00;97006.16;4988793;28;20534;-76
2024/02/07 10:24:08;;;;;;;4.10;1.50;;;9.20;99.90;;;9.79;100.00;97013.34;4988472;28;20460;-76
2024/02/07 10:26:36;;;;;;;2.17;1.43;;;9.30;99.90;;;9.77;100.00;97017.19;4985458;28;20561;-76
2024/02/07 10:29:08;;;;;;;3.37;1.30;;;9.30;99.90;;;9.76;100.00;96999.91;4988510;28;20472;-76
2024/02/07 10:31:36;;;;;;;3.47;1.47;;;9.40;99.90;;;9.76;100.00;96992.09;4988202;28;20550;-76
2024/02/07 10:34:05;;;;;;;1.77;1.30;;;9.30;99.90;;;9.76;100.00;96997.31;4988483;28;21754;-76
2024/02/07 10:36:34;;;;;;;2.27;1.40;;;9.30;99.90;;;9.79;100.00;96996.91;4988054;28;20476;-75
2024/02/07 10:39:03;;;;;;;1.73;1.60;;;9.30;99.90;;;9.82;100.00;96986.06;4989089;28;20478;-76
2024/02/07 10:41:32;;;;;;;5.03;1.47;;;9.40;99.90;;;9.78;100.00;96995.31;4986590;28;20486;-76
2024/02/07 10:44:12;;;;;;;5.43;1.30;;;9.40;99.90;;;9.77;100.00;96993.69;4987595;28;20448;-76
2024/02/07 10:46:40;;;;;;;1.53;1.43;;;9.40;99.90;;;9.73;100.00;96990.69;4985908;28;20894;-76
2024/02/07 10:49:21;;;;;;;1.50;1.40;;;9.20;99.90;;;9.76;100.00;96989.47;4986899;28;20510;-76
2024/02/07 10:51:50;;;;;;;1.87;1.43;;;9.40;99.90;;;9.77;100.00;96973.63;4986764;28;20541;-76
2024/02/07 10:54:19;;;;;;;1.60;1.30;;;9.40;99.90;;;9.82;100.00;96986.06;4985721;28;21001;-76
2024/02/07 10:56:51;;;;;;;1.67;1.33;;;9.40;99.90;;;9.79;100.00;96976.81;4988037;28;20475;-75
2024/02/07 10:59:21;;;;;;;1.97;1.20;;;9.40;99.90;;;9.82;100.00;96970.38;4988688;28;21002;-76
2024/02/07 11:01:51;;;;;;;2.20;1.13;;;9.40;99.90;;;9.77;100.00;96967.59;4986063;28;21038;-76
2024/02/07 11:04:22;;;;;;;2.10;1.40;;;9.20;99.90;;;9.78;100.00;96974.41;4988103;28;20522;-76
2024/02/07 11:06:52;;;;;;;2.50;1.47;;;9.20;99.90;;;9.76;100.00;96971.19;4987256;28;20467;-75
2024/02/07 11:09:20;;;;;;;3.00;1.63;;;9.30;99.90;;;9.76;100.00;96971.19;4986631;28;21881;-76
2024/02/07 11:11:50;;;;;;;1.27;1.17;;;9.40;99.90;;;9.81;100.00;96958.34;4986053;28;21041;-76
2024/02/07 11:14:20;;;;;;;3.63;1.30;;;9.40;99.90;;;9.81;100.00;96956.53;4987106;28;20464;-76
2024/02/07 11:16:49;;;;;;;1.90;1.20;;;9.30;99.90;;;9.78;100.00;96958.75;4984749;28;20459;-76
2024/02/07 11:19:18;;;;;;;3.20;1.30;;;9.20;99.90;;;9.80;100.00;96956.72;4985900;28;20468;-76
2024/02/07 11:21:47;;;;;;;1.47;1.20;;;9.30;99.90;;;9.77;100.00;96957.94;4988085;28;20472;-75
2024/02/07 11:24:21;;;;;;;1.30;1.20;;;9.20;99.90;;;9.80;100.00;96946.28;4987613;28;20475;-76
2024/02/07 11:27:02;;;;;;;1.33;1.23;;;9.30;99.90;;;9.85;100.00;96951.69;4986563;28;20467;-76
2024/02/07 11:29:35;;;;;;;1.50;1.30;;;9.40;99.90;;;9.83;100.00;96946.66;4985932;28;20474;-75
2024/02/07 11:32:15;;;;;;;1.43;1.33;;;9.50;99.90;;;9.85;100.00;96944.66;4986936;28;20512;-76
2024/02/07 11:34:44;;;;;;;1.70;1.40;;;9.40;99.90;;;9.84;100.00;96940.44;4987025;28;20770;-75
2024/02/07 11:37:19;;;;;;;1.70;1.50;;;9.40;99.90;;;9.85;100.00;96941.25;4986208;28;20491;-76
2024/02/07 11:39:50;;;;;;;3.80;1.70;;;9.40;99.90;;;9.87;100.00;96940.03;4986935;28;20924;-76
2024/02/07 11:42:20;;;;;;;4.20;2.43;;;9.40;99.90;;;9.85;100.00;96933.41;4986243;28;20983;-75
2024/02/07 11:45:00;;;;;;;2.30;1.67;;;9.40;99.90;;;9.83;100.00;96936.22;4986467;28;20607;-75